CYXU

London Airport

London, Ontario, Canada
TAF CYXU 161738Z 1618/1718 23010G20KT P6SM SCT040 TEMPO 1618/1701 BKN040 PROB30 1618/1701 VRB15G25KT 11/2SM +TSRA BR BKN020 BKN050CB FM170100 23006KT P6SM BKN030 FM170400 29005KT 5SM -RA BR BKN005 BKN050 FM170800 34010KT P6SM SCT050 FM171100 35010KT P6SM SKC BECMG 1716/1718 32015G25KT RMK NXT FCST BY 170000Z
Issued Valid From Valid To
Jul-16 @ 17:38 UTC
(2 hours ago)
Jul-16 @ 18:00 UTC
(2 hours ago)
Jul-17 @ 18:00 UTC
(in 22 hours)
Jul-16 @ 18:00 to Jul-17 @ 01:00
TAF CYXU 161738Z 1618/1718 23010G20KT P6SM SCT040
Wind Visibility Clouds
230° at 10 knots
 Gusting to 20 knots
Greater than 6 miles
  • Scattered at 4,000' AGL
Probable  (Probability 30%) Jul-16 @ 18:00 to Jul-17 @ 01:00
PROB30 1618/1701 VRB15G25KT 11/2SM +TSRA BR BKN020 BKN050CB
Wind Visibility Clouds Conditions
Variable at 15 knots
 Gusting to 25 knots
1 1/2 miles
  • Broken at 2,000' AGL
  • Broken at 5,000' AGL
  • Heavy Thunderstorm
  • Heavy Rain
  • Mist
Temporary Jul-16 @ 18:00 to Jul-17 @ 01:00
TEMPO 1618/1701 BKN040
Clouds
  • Broken at 4,000' AGL
From Jul-17 @ 01:00 to Jul-17 @ 04:00
FM170100 23006KT P6SM BKN030
Wind Visibility Clouds
230° at 6 knots Greater than 6 miles
  • Broken at 3,000' AGL
From Jul-17 @ 04:00 to Jul-17 @ 08:00
FM170400 29005KT 5SM -RA BR BKN005 BKN050
Wind Visibility Clouds Conditions
290° at 5 knots 5 miles
  • Broken at 500' AGL
  • Broken at 5,000' AGL
  • Light Rain
  • Mist
From Jul-17 @ 08:00 to Jul-17 @ 11:00
FM170800 34010KT P6SM SCT050
Wind Visibility Clouds
340° at 10 knots Greater than 6 miles
  • Scattered at 5,000' AGL
From Jul-17 @ 11:00 to Jul-17 @ 16:00
FM171100 35010KT P6SM SKC
Wind Visibility Clouds
350° at 10 knots Greater than 6 miles
  • Clear skies
Becoming Jul-17 @ 16:00 to Jul-17 @ 18:00
BECMG 1716/1718 32015G25KT RMK NXT FCST BY 170000Z
Wind Visibility Clouds
320° at 15 knots
 Gusting to 25 knots
Greater than 6 miles
  • Clear skies
TAF CYXU 161738Z 1618/1718 23010G20KT P6SM SCT040 TEMPO 1618/1701 BKN040 PROB30 1618/1701 VRB15G25KT 11/2SM +TSRA BR BKN020 BKN050CB FM170100 23006KT P6SM BKN030 FM170400 29005KT 5SM -RA BR BKN005 BKN050 FM170800 34010KT P6SM SCT050 FM171100 35010KT P6SM SKC BECMG 1716/1718 32015G25KT RMK NXT FCST BY 170000Z
Issued Jul-16 @ 17:38 UTC
(2 hours ago)
Valid From Jul-16 @ 18:00 UTC
(2 hours ago)
Valid To Jul-17 @ 18:00 UTC
(in 22 hours)
Jul-16 @ 18:00 - Jul-17 @ 01:00
Wind Visibility
230° at 10 knots
 Gusting to 20 knots
Greater than 6 miles
Clouds
  • Scattered at 4,000' AGL
Probability 30% Probable Jul-16 @ 18:00 - Jul-17 @ 01:00
Wind Visibility
Variable at 15 knots
 Gusting to 25 knots
1 1/2 miles
Clouds
  • Broken at 2,000' AGL
  • Broken at 5,000' AGL
Conditions
  • Heavy Thunderstorm
  • Heavy Rain
  • Mist
Temporary Jul-16 @ 18:00 - Jul-17 @ 01:00
Clouds
  • Broken at 4,000' AGL
From Jul-17 @ 01:00 - Jul-17 @ 04:00
Wind Visibility
230° at 6 knots Greater than 6 miles
Clouds
  • Broken at 3,000' AGL
From Jul-17 @ 04:00 - Jul-17 @ 08:00
Wind Visibility
290° at 5 knots 5 miles
Clouds
  • Broken at 500' AGL
  • Broken at 5,000' AGL
Conditions
  • Light Rain
  • Mist
From Jul-17 @ 08:00 - Jul-17 @ 11:00
Wind Visibility
340° at 10 knots Greater than 6 miles
Clouds
  • Scattered at 5,000' AGL
From Jul-17 @ 11:00 - Jul-17 @ 16:00
Wind Visibility
350° at 10 knots Greater than 6 miles
Clouds
  • Clear skies
Becoming Jul-17 @ 16:00 - Jul-17 @ 18:00
Wind Visibility
320° at 15 knots
 Gusting to 25 knots
Greater than 6 miles
Clouds
  • Clear skies